sensor_id;sensor_type;location;lat;lon;timestamp;pressure;altitude;pressure_sealevel;temperature;humidity
55994;BME280;67425;52.126;20.638;2023-03-21T00:01:04;57383.44;;;-144.78;67.27
55994;BME280;67425;52.126;20.638;2023-03-21T00:03:31;57364.75;;;-144.78;68.29
55994;BME280;67425;52.126;20.638;2023-03-21T00:05:58;57370.97;;;-144.78;67.70
55994;BME280;67425;52.126;20.638;2023-03-21T00:08:25;57383.44;;;-144.78;66.53
55994;BME280;67425;52.126;20.638;2023-03-21T00:10:57;57373.06;;;-144.78;68.56
55994;BME280;67425;52.126;20.638;2023-03-21T00:13:24;57366.81;;;-144.78;67.60
55994;BME280;67425;52.126;20.638;2023-03-21T00:15:51;57377.19;;;-144.78;67.52
55994;BME280;67425;52.126;20.638;2023-03-21T00:18:22;57379.28;;;-144.78;68.81
55994;BME280;67425;52.126;20.638;2023-03-21T00:20:55;57379.28;;;-144.78;69.24
55994;BME280;67425;52.126;20.638;2023-03-21T00:23:23;57379.28;;;-144.78;68.99
55994;BME280;67425;52.126;20.638;2023-03-21T00:25:48;57356.44;;;-144.78;68.79
55994;BME280;67425;52.126;20.638;2023-03-21T00:28:14;57377.19;;;-144.78;69.34
55994;BME280;67425;52.126;20.638;2023-03-21T00:30:39;57377.19;;;-144.78;69.72
55994;BME280;67425;52.126;20.638;2023-03-21T00:33:04;57362.66;;;-144.78;68.48
55994;BME280;67425;52.126;20.638;2023-03-21T00:35:30;57381.34;;;-144.78;67.19
55994;BME280;67425;52.126;20.638;2023-03-21T00:37:55;57366.81;;;-144.78;67.97
55994;BME280;67425;52.126;20.638;2023-03-21T00:40:20;57387.59;;;-144.78;69.58
55994;BME280;67425;52.126;20.638;2023-03-21T00:42:46;57368.91;;;-144.78;68.73
55994;BME280;67425;52.126;20.638;2023-03-21T00:45:11;57352.28;;;-144.78;66.25
55994;BME280;67425;52.126;20.638;2023-03-21T00:47:36;57354.34;;;-144.78;68.52
55994;BME280;67425;52.126;20.638;2023-03-21T00:50:02;57379.28;;;-144.78;68.79
55994;BME280;67425;52.126;20.638;2023-03-21T00:52:28;57352.28;;;-144.78;68.50
55994;BME280;67425;52.126;20.638;2023-03-21T00:54:54;57383.44;;;-144.78;68.40
55994;BME280;67425;52.126;20.638;2023-03-21T00:57:19;57364.75;;;-144.78;67.32
55994;BME280;67425;52.126;20.638;2023-03-21T00:59:45;57368.91;;;-144.78;67.63
55994;BME280;67425;52.126;20.638;2023-03-21T01:02:10;57373.06;;;-144.78;68.17
55994;BME280;67425;52.126;20.638;2023-03-21T01:04:39;57375.13;;;-144.78;68.15
55994;BME280;67425;52.126;20.638;2023-03-21T01:07:04;57385.50;;;-144.78;68.45
55994;BME280;67425;52.126;20.638;2023-03-21T01:09:29;57343.97;;;-144.78;66.10
55994;BME280;67425;52.126;20.638;2023-03-21T01:11:55;57377.19;;;-144.78;66.83
55994;BME280;67425;52.126;20.638;2023-03-21T01:14:21;57366.81;;;-144.78;67.49
55994;BME280;67425;52.126;20.638;2023-03-21T01:16:48;57364.75;;;-144.78;66.50
55994;BME280;67425;52.126;20.638;2023-03-21T01:19:16;57343.97;;;-144.78;64.35
55994;BME280;67425;52.126;20.638;2023-03-21T01:21:43;57356.44;;;-144.78;65.43
55994;BME280;67425;52.126;20.638;2023-03-21T01:24:08;57362.66;;;-144.78;64.52
55994;BME280;67425;52.126;20.638;2023-03-21T01:26:35;57343.97;;;-144.78;64.23
55994;BME280;67425;52.126;20.638;2023-03-21T01:29:02;57362.66;;;-144.78;64.30
55994;BME280;67425;52.126;20.638;2023-03-21T01:31:28;57346.06;;;-144.78;60.41
55994;BME280;67425;52.126;20.638;2023-03-21T01:33:53;57316.97;;;-144.78;59.87
55994;BME280;67425;52.126;20.638;2023-03-21T01:36:21;57343.97;;;-144.78;62.77
55994;BME280;67425;52.126;20.638;2023-03-21T01:38:47;57373.06;;;-144.78;64.38
55994;BME280;67425;52.126;20.638;2023-03-21T01:43:53;57341.91;;;-144.78;64.36
55994;BME280;67425;52.126;20.638;2023-03-21T01:46:28;57354.34;;;-144.78;61.23
55994;BME280;67425;52.126;20.638;2023-03-21T01:49:00;57364.75;;;-144.78;62.57
55994;BME280;67425;52.126;20.638;2023-03-21T01:51:27;57370.97;;;-144.78;65.62
55994;BME280;67425;52.126;20.638;2023-03-21T01:53:54;57368.91;;;-144.78;66.02
55994;BME280;67425;52.126;20.638;2023-03-21T01:56:27;57389.66;;;-144.78;67.70
55994;BME280;67425;52.126;20.638;2023-03-21T01:58:57;57379.28;;;-144.78;68.72
55994;BME280;67425;52.126;20.638;2023-03-21T02:01:27;57383.44;;;-144.78;68.02
55994;BME280;67425;52.126;20.638;2023-03-21T02:03:52;57368.91;;;-144.78;66.80
55994;BME280;67425;52.126;20.638;2023-03-21T02:06:31;57360.59;;;-144.78;66.15
55994;BME280;67425;52.126;20.638;2023-03-21T02:09:02;57368.91;;;-144.78;65.51
55994;BME280;67425;52.126;20.638;2023-03-21T02:11:29;57362.66;;;-144.78;66.21
55994;BME280;67425;52.126;20.638;2023-03-21T02:13:56;57379.28;;;-144.78;67.49
55994;BME280;67425;52.126;20.638;2023-03-21T02:22:36;57379.28;;;-144.78;65.51
55994;BME280;67425;52.126;20.638;2023-03-21T02:47:24;57418.72;;;-144.78;74.94
55994;BME280;67425;52.126;20.638;2023-03-21T02:49:57;57422.88;;;-144.78;76.42
55994;BME280;67425;52.126;20.638;2023-03-21T02:52:28;57439.50;;;-144.78;79.74
55994;BME280;67425;52.126;20.638;2023-03-21T02:54:56;57422.88;;;-144.78;76.78
55994;BME280;67425;52.126;20.638;2023-03-21T02:57:22;57449.88;;;-144.78;76.94
55994;BME280;67425;52.126;20.638;2023-03-21T02:59:49;57433.28;;;-144.78;75.05
55994;BME280;67425;52.126;20.638;2023-03-21T03:02:16;57397.97;;;-144.78;74.13
55994;BME280;67425;52.126;20.638;2023-03-21T03:04:45;57418.72;;;-144.78;73.69
55994;BME280;67425;52.126;20.638;2023-03-21T03:07:22;57422.88;;;-144.78;73.41
55994;BME280;67425;52.126;20.638;2023-03-21T03:15:54;57410.44;;;-144.78;73.61
55994;BME280;67425;52.126;20.638;2023-03-21T03:21:19;57414.59;;;-144.78;73.41
55994;BME280;67425;52.126;20.638;2023-03-21T03:26:32;57435.34;;;-144.78;73.93
55994;BME280;67425;52.126;20.638;2023-03-21T03:29:06;57437.44;;;-144.78;76.33
55994;BME280;67425;52.126;20.638;2023-03-21T03:31:36;57441.59;;;-144.78;77.06
55994;BME280;67425;52.126;20.638;2023-03-21T03:34:10;57437.44;;;-144.78;76.03
55994;BME280;67425;52.126;20.638;2023-03-21T03:36:39;57427.03;;;-144.78;73.90
55994;BME280;67425;52.126;20.638;2023-03-21T03:39:09;57362.66;;;-144.78;66.89
55994;BME280;67425;52.126;20.638;2023-03-21T03:41:55;57373.06;;;-144.78;65.48
55994;BME280;67425;52.126;20.638;2023-03-21T03:44:23;57414.59;;;-144.78;73.76
55994;BME280;67425;52.126;20.638;2023-03-21T03:49:24;57449.88;;;-144.78;77.48
55994;BME280;67425;52.126;20.638;2023-03-21T03:54:27;57422.88;;;-144.78;70.48
55994;BME280;67425;52.126;20.638;2023-03-21T03:56:54;57389.66;;;-144.78;68.41
55994;BME280;67425;52.126;20.638;2023-03-21T03:59:20;57360.59;;;-144.78;64.22
55994;BME280;67425;52.126;20.638;2023-03-21T04:01:49;57356.44;;;-144.78;61.38
55994;BME280;67425;52.126;20.638;2023-03-21T04:04:15;57368.91;;;-144.78;63.34
55994;BME280;67425;52.126;20.638;2023-03-21T04:06:44;57387.59;;;-144.78;64.05
55994;BME280;67425;52.126;20.638;2023-03-21T04:09:16;57410.44;;;-144.78;66.56
55994;BME280;67425;52.126;20.638;2023-03-21T04:11:41;57373.06;;;-144.78;64.83
55994;BME280;67425;52.126;20.638;2023-03-21T04:14:07;57414.59;;;-144.78;66.72
55994;BME280;67425;52.126;20.638;2023-03-21T04:16:32;57402.13;;;-144.78;67.23
55994;BME280;67425;52.126;20.638;2023-03-21T04:18:57;57358.50;;;-144.78;62.06
55994;BME280;67425;52.126;20.638;2023-03-21T04:21:23;57366.81;;;-144.78;64.67
55994;BME280;67425;52.126;20.638;2023-03-21T04:23:48;57368.91;;;-144.78;62.94
55994;BME280;67425;52.126;20.638;2023-03-21T04:26:14;57379.28;;;-144.78;64.50
55994;BME280;67425;52.126;20.638;2023-03-21T04:28:39;57366.81;;;-144.78;63.86
55994;BME280;67425;52.126;20.638;2023-03-21T04:31:06;57379.28;;;-144.78;64.31
55994;BME280;67425;52.126;20.638;2023-03-21T04:33:33;57389.66;;;-144.78;64.61
55994;BME280;67425;52.126;20.638;2023-03-21T04:36:03;57389.66;;;-144.78;65.88
55994;BME280;67425;52.126;20.638;2023-03-21T04:38:31;57389.66;;;-144.78;66.25
55994;BME280;67425;52.126;20.638;2023-03-21T04:40:58;57339.81;;;-144.78;60.75
55994;BME280;67425;52.126;20.638;2023-03-21T04:43:23;57356.44;;;-144.78;59.78
55994;BME280;67425;52.126;20.638;2023-03-21T04:45:49;57354.34;;;-144.78;59.78
55994;BME280;67425;52.126;20.638;2023-03-21T04:48:15;57341.91;;;-144.78;58.58
55994;BME280;67425;52.126;20.638;2023-03-21T04:50:42;57327.34;;;-144.78;59.25
55994;BME280;67425;52.126;20.638;2023-03-21T04:53:08;57337.75;;;-144.78;58.70
55994;BME280;67425;52.126;20.638;2023-03-21T04:55:33;57350.19;;;-144.78;59.04
55994;BME280;67425;52.126;20.638;2023-03-21T04:58:01;57321.13;;;-144.78;56.93
55994;BME280;67425;52.126;20.638;2023-03-21T05:00:26;57356.44;;;-144.78;58.42
55994;BME280;67425;52.126;20.638;2023-03-21T05:02:51;57339.81;;;-144.78;59.16
55994;BME280;67425;52.126;20.638;2023-03-21T05:05:17;57323.22;;;-144.78;57.36
55994;BME280;67425;52.126;20.638;2023-03-21T05:07:42;57319.06;;;-144.78;56.28
55994;BME280;67425;52.126;20.638;2023-03-21T05:10:10;57302.44;;;-144.78;55.75
55994;BME280;67425;52.126;20.638;2023-03-21T05:12:36;57341.91;;;-144.78;58.31
55994;BME280;67425;52.126;20.638;2023-03-21T05:15:01;57306.59;;;-144.78;56.31
55994;BME280;67425;52.126;20.638;2023-03-21T05:17:27;57310.75;;;-144.78;56.71
55994;BME280;67425;52.126;20.638;2023-03-21T05:19:52;57335.66;;;-144.78;55.91
55994;BME280;67425;52.126;20.638;2023-03-21T05:22:21;57337.75;;;-144.78;56.52
55994;BME280;67425;52.126;20.638;2023-03-21T05:24:49;57316.97;;;-144.78;56.76
55994;BME280;67425;52.126;20.638;2023-03-21T05:27:21;57312.81;;;-144.78;56.70
55994;BME280;67425;52.126;20.638;2023-03-21T05:30:11;57306.59;;;-144.78;55.73
55994;BME280;67425;52.126;20.638;2023-03-21T05:32:36;57314.91;;;-144.78;55.05
55994;BME280;67425;52.126;20.638;2023-03-21T05:35:02;57302.44;;;-144.78;55.08
55994;BME280;67425;52.126;20.638;2023-03-21T05:37:28;57314.91;;;-144.78;56.38
55994;BME280;67425;52.126;20.638;2023-03-21T05:39:54;57314.91;;;-144.78;55.53
55994;BME280;67425;52.126;20.638;2023-03-21T05:42:19;57319.06;;;-144.78;55.54
55994;BME280;67425;52.126;20.638;2023-03-21T05:44:45;57310.75;;;-144.78;55.85
55994;BME280;67425;52.126;20.638;2023-03-21T05:47:12;57292.06;;;-144.78;55.01
55994;BME280;67425;52.126;20.638;2023-03-21T05:49:37;57296.22;;;-144.78;54.16
55994;BME280;67425;52.126;20.638;2023-03-21T05:52:03;57306.59;;;-144.78;55.49
55994;BME280;67425;52.126;20.638;2023-03-21T05:54:28;57306.59;;;-144.78;54.91
55994;BME280;67425;52.126;20.638;2023-03-21T05:56:54;57304.50;;;-144.78;55.32
55994;BME280;67425;52.126;20.638;2023-03-21T05:59:19;57310.75;;;-144.78;55.32
55994;BME280;67425;52.126;20.638;2023-03-21T06:01:45;57321.13;;;-144.78;56.14
55994;BME280;67425;52.126;20.638;2023-03-21T06:04:11;57289.97;;;-144.78;55.26
55994;BME280;67425;52.126;20.638;2023-03-21T06:06:36;57312.81;;;-144.78;54.93
55994;BME280;67425;52.126;20.638;2023-03-21T06:09:01;57294.13;;;-144.78;55.08
55994;BME280;67425;52.126;20.638;2023-03-21T06:11:33;57302.44;;;-144.78;55.07
55994;BME280;67425;52.126;20.638;2023-03-21T06:14:00;57335.66;;;-144.78;58.43
55994;BME280;67425;52.126;20.638;2023-03-21T06:16:25;57358.50;;;-144.78;60.26
55994;BME280;67425;52.126;20.638;2023-03-21T06:18:52;57360.59;;;-144.78;61.78
55994;BME280;67425;52.126;20.638;2023-03-21T06:21:18;57350.19;;;-144.78;62.18
55994;BME280;67425;52.126;20.638;2023-03-21T06:23:43;57402.13;;;-144.78;65.39
55994;BME280;67425;52.126;20.638;2023-03-21T06:26:08;57389.66;;;-144.78;66.79
55994;BME280;67425;52.126;20.638;2023-03-21T06:28:34;57387.59;;;-144.78;65.46
55994;BME280;67425;52.126;20.638;2023-03-21T06:30:59;57385.50;;;-144.78;66.62
55994;BME280;67425;52.126;20.638;2023-03-21T06:33:25;57418.72;;;-144.78;70.74
55994;BME280;67425;52.126;20.638;2023-03-21T06:35:54;57373.06;;;-144.78;67.10
55994;BME280;67425;52.126;20.638;2023-03-21T06:38:21;57404.19;;;-144.78;66.02
55994;BME280;67425;52.126;20.638;2023-03-21T06:40:47;57414.59;;;-144.78;67.53
55994;BME280;67425;52.126;20.638;2023-03-21T06:43:13;57379.28;;;-144.78;66.25
55994;BME280;67425;52.126;20.638;2023-03-21T06:45:40;57397.97;;;-144.78;65.54
55994;BME280;67425;52.126;20.638;2023-03-21T06:48:05;57383.44;;;-144.78;62.66
55994;BME280;67425;52.126;20.638;2023-03-21T06:50:31;57391.75;;;-144.78;65.82
55994;BME280;67425;52.126;20.638;2023-03-21T06:52:56;57354.34;;;-144.78;62.39
55994;BME280;67425;52.126;20.638;2023-03-21T06:55:23;57341.91;;;-144.78;59.83
55994;BME280;67425;52.126;20.638;2023-03-21T06:57:51;57360.59;;;-144.78;61.60
55994;BME280;67425;52.126;20.638;2023-03-21T07:00:17;57350.19;;;-144.78;60.26
55994;BME280;67425;52.126;20.638;2023-03-21T07:02:43;57346.06;;;-144.78;59.94
55994;BME280;67425;52.126;20.638;2023-03-21T07:05:08;57375.13;;;-144.78;62.14
55994;BME280;67425;52.126;20.638;2023-03-21T07:07:33;57329.44;;;-144.78;59.44
55994;BME280;67425;52.126;20.638;2023-03-21T07:09:59;57385.50;;;-144.78;61.66
55994;BME280;67425;52.126;20.638;2023-03-21T07:12:24;57343.97;;;-144.78;60.47
55994;BME280;67425;52.126;20.638;2023-03-21T07:14:50;57350.19;;;-144.78;58.69
55994;BME280;67425;52.126;20.638;2023-03-21T07:17:15;57343.97;;;-144.78;58.49
55994;BME280;67425;52.126;20.638;2023-03-21T07:19:40;57327.34;;;-144.78;58.02
55994;BME280;67425;52.126;20.638;2023-03-21T07:22:06;57408.34;;;-144.78;66.88
55994;BME280;67425;52.126;20.638;2023-03-21T07:24:31;57416.66;;;-144.78;68.03
55994;BME280;67425;52.126;20.638;2023-03-21T07:26:56;57397.97;;;-144.78;66.70
55994;BME280;67425;52.126;20.638;2023-03-21T07:29:22;57383.44;;;-144.78;66.35
55994;BME280;67425;52.126;20.638;2023-03-21T07:31:48;57375.13;;;-144.78;64.25
55994;BME280;67425;52.126;20.638;2023-03-21T07:34:13;57360.59;;;-144.78;63.12
55994;BME280;67425;52.126;20.638;2023-03-21T07:36:40;57377.19;;;-144.78;62.48
55994;BME280;67425;52.126;20.638;2023-03-21T07:39:06;57364.75;;;-144.78;62.97
55994;BME280;67425;52.126;20.638;2023-03-21T07:41:31;57354.34;;;-144.78;60.72
55994;BME280;67425;52.126;20.638;2023-03-21T07:43:57;57350.19;;;-144.78;60.99
55994;BME280;67425;52.126;20.638;2023-03-21T07:46:22;57381.34;;;-144.78;61.97
55994;BME280;67425;52.126;20.638;2023-03-21T07:48:47;57358.50;;;-144.78;61.16
55994;BME280;67425;52.126;20.638;2023-03-21T07:51:13;57356.44;;;-144.78;60.69
55994;BME280;67425;52.126;20.638;2023-03-21T07:53:38;57327.34;;;-144.78;60.20
55994;BME280;67425;52.126;20.638;2023-03-21T07:56:06;57370.97;;;-144.78;61.14
55994;BME280;67425;52.126;20.638;2023-03-21T07:58:32;57343.97;;;-144.78;61.48
55994;BME280;67425;52.126;20.638;2023-03-21T08:00:58;57333.59;;;-144.78;59.79
55994;BME280;67425;52.126;20.638;2023-03-21T08:03:24;57343.97;;;-144.78;60.72
55994;BME280;67425;52.126;20.638;2023-03-21T08:05:54;57360.59;;;-144.78;60.61
55994;BME280;67425;52.126;20.638;2023-03-21T08:08:19;57350.19;;;-144.78;59.28
55994;BME280;67425;52.126;20.638;2023-03-21T08:10:45;57304.50;;;-144.78;57.93
55994;BME280;67425;52.126;20.638;2023-03-21T08:13:11;57360.59;;;-144.78;62.63
55994;BME280;67425;52.126;20.638;2023-03-21T08:15:37;57350.19;;;-144.78;60.57
55994;BME280;67425;52.126;20.638;2023-03-21T08:18:07;57358.50;;;-144.78;61.84
55994;BME280;67425;52.126;20.638;2023-03-21T08:20:32;57379.28;;;-144.78;61.63
55994;BME280;67425;52.126;20.638;2023-03-21T08:22:58;57356.44;;;-144.78;61.07
55994;BME280;67425;52.126;20.638;2023-03-21T08:25:23;57314.91;;;-144.78;58.16
55994;BME280;67425;52.126;20.638;2023-03-21T08:27:49;57354.34;;;-144.78;60.66
55994;BME280;67425;52.126;20.638;2023-03-21T08:30:18;57368.91;;;-144.78;61.76
55994;BME280;67425;52.126;20.638;2023-03-21T08:32:44;57389.66;;;-144.78;61.79
55994;BME280;67425;52.126;20.638;2023-03-21T08:35:13;57389.66;;;-144.78;62.70
55994;BME280;67425;52.126;20.638;2023-03-21T08:37:40;57335.66;;;-144.78;58.78
55994;BME280;67425;52.126;20.638;2023-03-21T08:40:09;57333.59;;;-144.78;58.29
55994;BME280;67425;52.126;20.638;2023-03-21T08:42:36;57314.91;;;-144.78;57.67
55994;BME280;67425;52.126;20.638;2023-03-21T08:45:03;57321.13;;;-144.78;56.47
55994;BME280;67425;52.126;20.638;2023-03-21T08:47:29;57314.91;;;-144.78;56.05
55994;BME280;67425;52.126;20.638;2023-03-21T08:49:55;57348.13;;;-144.78;57.79
55994;BME280;67425;52.126;20.638;2023-03-21T08:52:20;57321.13;;;-144.78;56.96
55994;BME280;67425;52.126;20.638;2023-03-21T08:54:45;57302.44;;;-144.78;55.71
55994;BME280;67425;52.126;20.638;2023-03-21T08:57:12;57362.66;;;-144.78;59.54
55994;BME280;67425;52.126;20.638;2023-03-21T08:59:38;57348.13;;;-144.78;57.11
55994;BME280;67425;52.126;20.638;2023-03-21T09:02:03;57373.06;;;-144.78;58.45
55994;BME280;67425;52.126;20.638;2023-03-21T09:04:29;57343.97;;;-144.78;59.57
55994;BME280;67425;52.126;20.638;2023-03-21T09:06:55;57352.28;;;-144.78;59.97
55994;BME280;67425;52.126;20.638;2023-03-21T09:09:20;57341.91;;;-144.78;58.21
55994;BME280;67425;52.126;20.638;2023-03-21T09:11:46;57337.75;;;-144.78;58.21
55994;BME280;67425;52.126;20.638;2023-03-21T09:14:11;57358.50;;;-144.78;58.94
55994;BME280;67425;52.126;20.638;2023-03-21T09:16:36;57366.81;;;-144.78;59.73
55994;BME280;67425;52.126;20.638;2023-03-21T09:19:02;57294.13;;;-144.78;55.84
55994;BME280;67425;52.126;20.638;2023-03-21T09:21:29;57327.34;;;-144.78;56.07
55994;BME280;67425;52.126;20.638;2023-03-21T09:23:55;57300.38;;;-144.78;55.12
55994;BME280;67425;52.126;20.638;2023-03-21T09:26:24;57292.06;;;-144.78;53.82
55994;BME280;67425;52.126;20.638;2023-03-21T09:28:49;57275.44;;;-144.78;54.20
55994;BME280;67425;52.126;20.638;2023-03-21T09:31:16;57308.66;;;-144.78;55.07
55994;BME280;67425;52.126;20.638;2023-03-21T09:33:50;57377.19;;;-144.78;60.66
55994;BME280;67425;52.126;20.638;2023-03-21T09:36:16;57329.44;;;-144.78;59.21
55994;BME280;67425;52.126;20.638;2023-03-21T09:38:45;57337.75;;;-144.78;56.88
55994;BME280;67425;52.126;20.638;2023-03-21T09:49:20;57294.13;;;-144.78;53.49
55994;BME280;67425;52.126;20.638;2023-03-21T09:51:49;57323.22;;;-144.78;56.15
55994;BME280;67425;52.126;20.638;2023-03-21T09:54:24;57329.44;;;-144.78;57.45
55994;BME280;67425;52.126;20.638;2023-03-21T09:56:53;57356.44;;;-144.78;60.73
55994;BME280;67425;52.126;20.638;2023-03-21T09:59:25;57333.59;;;-144.78;60.44
55994;BME280;67425;52.126;20.638;2023-03-21T10:01:52;57346.06;;;-144.78;61.16
55994;BME280;67425;52.126;20.638;2023-03-21T10:04:19;57329.44;;;-144.78;60.76
55994;BME280;67425;52.126;20.638;2023-03-21T10:06:52;57327.34;;;-144.78;59.07
55994;BME280;67425;52.126;20.638;2023-03-21T10:09:20;57331.50;;;-144.78;57.91
55994;BME280;67425;52.126;20.638;2023-03-21T10:11:55;57302.44;;;-144.78;57.02
55994;BME280;67425;52.126;20.638;2023-03-21T10:14:28;57281.69;;;-144.78;55.71
55994;BME280;67425;52.126;20.638;2023-03-21T10:17:03;57302.44;;;-144.78;56.66
55994;BME280;67425;52.126;20.638;2023-03-21T10:19:34;57308.66;;;-144.78;58.79
55994;BME280;67425;52.126;20.638;2023-03-21T10:22:00;57285.81;;;-144.78;57.19
55994;BME280;67425;52.126;20.638;2023-03-21T10:24:26;57319.06;;;-144.78;57.96
55994;BME280;67425;52.126;20.638;2023-03-21T10:26:53;57306.59;;;-144.78;57.88
55994;BME280;67425;52.126;20.638;2023-03-21T10:29:22;57331.50;;;-144.78;59.67
55994;BME280;67425;52.126;20.638;2023-03-21T10:31:50;57312.81;;;-144.78;59.36
55994;BME280;67425;52.126;20.638;2023-03-21T10:36:48;57333.59;;;-144.78;58.36
55994;BME280;67425;52.126;20.638;2023-03-21T10:41:56;57285.81;;;-144.78;56.77
55994;BME280;67425;52.126;20.638;2023-03-21T10:44:28;57292.06;;;-144.78;56.96
55994;BME280;67425;52.126;20.638;2023-03-21T10:47:02;57269.22;;;-144.78;55.77
55994;BME280;67425;52.126;20.638;2023-03-21T10:49:31;57283.75;;;-144.78;54.91
55994;BME280;67425;52.126;20.638;2023-03-21T10:51:58;57285.81;;;-144.78;53.75
55994;BME280;67425;52.126;20.638;2023-03-21T10:54:28;57254.69;;;-144.78;52.90
55994;BME280;67425;52.126;20.638;2023-03-21T10:57:07;57277.53;;;-144.78;54.43
55994;BME280;67425;52.126;20.638;2023-03-21T10:59:54;57271.28;;;-144.78;53.03
55994;BME280;67425;52.126;20.638;2023-03-21T11:02:36;57256.75;;;-144.78;51.49
55994;BME280;67425;52.126;20.638;2023-03-21T11:05:07;57244.28;;;-144.78;52.10
55994;BME280;67425;52.126;20.638;2023-03-21T11:07:34;57233.91;;;-144.78;50.59
55994;BME280;67425;52.126;20.638;2023-03-21T11:10:00;57240.13;;;-144.78;49.95
55994;BME280;67425;52.126;20.638;2023-03-21T11:12:40;57294.13;;;-144.78;52.86
55994;BME280;67425;52.126;20.638;2023-03-21T11:18:29;57267.13;;;-144.78;50.64
55994;BME280;67425;52.126;20.638;2023-03-21T11:20:58;57256.75;;;-144.78;51.74
55994;BME280;67425;52.126;20.638;2023-03-21T11:23:29;57246.38;;;-144.78;51.33
55994;BME280;67425;52.126;20.638;2023-03-21T11:25:58;57265.06;;;-144.78;50.08
55994;BME280;67425;52.126;20.638;2023-03-21T11:28:26;57252.59;;;-144.78;51.29
55994;BME280;67425;52.126;20.638;2023-03-21T11:30:59;57300.38;;;-144.78;53.21
55994;BME280;67425;52.126;20.638;2023-03-21T11:33:27;57285.81;;;-144.78;52.32
55994;BME280;67425;52.126;20.638;2023-03-21T11:38:35;57258.84;;;-144.78;51.52
55994;BME280;67425;52.126;20.638;2023-03-21T11:41:01;57267.13;;;-144.78;49.25
55994;BME280;67425;52.126;20.638;2023-03-21T11:43:33;57260.91;;;-144.78;49.91
55994;BME280;67425;52.126;20.638;2023-03-21T11:46:12;57260.91;;;-144.78;48.93
55994;BME280;67425;52.126;20.638;2023-03-21T11:48:46;57260.91;;;-144.78;49.01
55994;BME280;67425;52.126;20.638;2023-03-21T11:51:23;57283.75;;;-144.78;49.54
55994;BME280;67425;52.126;20.638;2023-03-21T11:54:15;57260.91;;;-144.78;49.13
55994;BME280;67425;52.126;20.638;2023-03-21T11:56:45;57252.59;;;-144.78;49.22
55994;BME280;67425;52.126;20.638;2023-03-21T12:09:54;57231.84;;;-144.78;48.55
55994;BME280;67425;52.126;20.638;2023-03-21T12:12:39;57233.91;;;-144.78;47.57
55994;BME280;67425;52.126;20.638;2023-03-21T12:32:05;57223.53;;;-144.78;47.78
55994;BME280;67425;52.126;20.638;2023-03-21T12:39:39;57242.22;;;-144.78;46.77
55994;BME280;67425;52.126;20.638;2023-03-21T12:42:29;57213.16;;;-144.78;46.58
55994;BME280;67425;52.126;20.638;2023-03-21T12:45:11;57260.91;;;-144.78;48.93
55994;BME280;67425;52.126;20.638;2023-03-21T12:47:42;57227.69;;;-144.78;45.93
55994;BME280;67425;52.126;20.638;2023-03-21T12:50:25;57231.84;;;-144.78;45.58
55994;BME280;67425;52.126;20.638;2023-03-21T12:53:01;57219.38;;;-144.78;46.63
55994;BME280;67425;52.126;20.638;2023-03-21T12:55:32;57215.22;;;-144.78;45.18
55994;BME280;67425;52.126;20.638;2023-03-21T12:58:04;57231.84;;;-144.78;45.06
55994;BME280;67425;52.126;20.638;2023-03-21T13:00:48;57271.28;;;-144.78;46.60
55994;BME280;67425;52.126;20.638;2023-03-21T13:03:39;57246.38;;;-144.78;45.60
55994;BME280;67425;52.126;20.638;2023-03-21T13:06:09;57256.75;;;-144.78;45.32
55994;BME280;67425;52.126;20.638;2023-03-21T13:08:52;57271.28;;;-144.78;45.98
55994;BME280;67425;52.126;20.638;2023-03-21T13:11:23;57227.69;;;-144.78;43.24
55994;BME280;67425;52.126;20.638;2023-03-21T13:14:06;57265.06;;;-144.78;44.46
55994;BME280;67425;52.126;20.638;2023-03-21T13:24:44;57236.00;;;-144.78;43.08
55994;BME280;67425;52.126;20.638;2023-03-21T13:27:33;57196.53;;;-144.78;42.02
55994;BME280;67425;52.126;20.638;2023-03-21T13:30:06;57194.47;;;-144.78;41.71
55994;BME280;67425;52.126;20.638;2023-03-21T13:32:43;57236.00;;;-144.78;42.58
55994;BME280;67425;52.126;20.638;2023-03-21T13:38:00;57223.53;;;-144.78;41.32
55994;BME280;67425;52.126;20.638;2023-03-21T13:40:33;57165.38;;;-144.78;39.84
55994;BME280;67425;52.126;20.638;2023-03-21T13:43:00;57198.59;;;-144.78;41.17
55994;BME280;67425;52.126;20.638;2023-03-21T13:45:45;57148.78;;;-144.78;39.31
55994;BME280;67425;52.126;20.638;2023-03-21T13:51:07;57209.00;;;-144.78;41.31
55994;BME280;67425;52.126;20.638;2023-03-21T13:53:37;57213.16;;;-144.78;42.00
55994;BME280;67425;52.126;20.638;2023-03-21T13:56:18;57194.47;;;-144.78;41.42
55994;BME280;67425;52.126;20.638;2023-03-21T14:06:30;57223.53;;;-144.78;41.06
55994;BME280;67425;52.126;20.638;2023-03-21T14:08:56;57194.47;;;-144.78;39.04
55994;BME280;67425;52.126;20.638;2023-03-21T14:11:22;57188.22;;;-144.78;39.22
55994;BME280;67425;52.126;20.638;2023-03-21T14:13:48;57190.31;;;-144.78;40.18
55994;BME280;67425;52.126;20.638;2023-03-21T14:16:18;57175.75;;;-144.78;39.45
55994;BME280;67425;52.126;20.638;2023-03-21T14:18:54;57157.06;;;-144.78;38.16
55994;BME280;67425;52.126;20.638;2023-03-21T14:21:26;57215.22;;;-144.78;40.71
55994;BME280;67425;52.126;20.638;2023-03-21T14:24:04;57173.69;;;-144.78;39.75
55994;BME280;67425;52.126;20.638;2023-03-21T14:26:40;57209.00;;;-144.78;40.91
55994;BME280;67425;52.126;20.638;2023-03-21T14:29:07;57198.59;;;-144.78;40.25
55994;BME280;67425;52.126;20.638;2023-03-21T14:31:34;57196.53;;;-144.78;40.26
55994;BME280;67425;52.126;20.638;2023-03-21T14:34:01;57148.78;;;-144.78;38.56
55994;BME280;67425;52.126;20.638;2023-03-21T14:36:31;57134.22;;;-144.78;38.24
55994;BME280;67425;52.126;20.638;2023-03-21T14:39:10;57136.31;;;-144.78;37.49